Time;durP1;ratioP1;P1;durP2;ratioP2;P2;SDS_P1;SDS_P2;PMS_P1;PMS_P2;Temp;Humidity;BMP_temperature;BMP_pressure;BME280_temperature;BME280_humidity;BME280_pressure;Samples;Min_cycle;Max_cycle;Signal;HPM_P1;HPM_P2
2023/09/14 00:00:55;;;;;;;11.52;3.58;;;11.10;99.90;;;;;;4946373;28;20398;-69
2023/09/14 00:03:22;;;;;;;10.52;3.15;;;11.10;99.90;;;;;;4910077;28;164419;-69
2023/09/14 00:05:50;;;;;;;11.20;3.13;;;11.10;99.90;;;;;;4957897;28;20055;-70
2023/09/14 00:08:16;;;;;;;11.48;3.10;;;11.10;99.90;;;;;;4914989;28;54877;-70
2023/09/14 00:10:42;;;;;;;10.00;3.15;;;11.00;99.90;;;;;;4956049;28;20054;-70
2023/09/14 00:13:09;;;;;;;9.85;3.33;;;11.00;99.90;;;;;;4898437;28;245070;-70
2023/09/14 00:15:38;;;;;;;10.40;3.35;;;11.00;99.90;;;;;;4921803;28;20059;-70
2023/09/14 00:18:05;;;;;;;11.75;3.50;;;11.00;99.90;;;;;;4911681;28;71075;-70
2023/09/14 00:20:31;;;;;;;10.90;3.42;;;11.00;99.90;;;;;;4950925;28;20062;-70
2023/09/14 00:22:58;;;;;;;10.38;3.70;;;10.90;99.90;;;;;;4903712;28;128471;-70
2023/09/14 00:25:24;;;;;;;12.80;3.78;;;10.90;99.90;;;;;;4947775;28;20047;-71
2023/09/14 00:27:52;;;;;;;12.00;3.65;;;10.90;99.90;;;;;;4912927;28;36031;-70
2023/09/14 00:30:22;;;;;;;13.25;3.85;;;10.90;99.90;;;;;;4943817;28;20059;-71
2023/09/14 00:32:50;;;;;;;12.98;3.97;;;10.90;99.90;;;;;;4933068;28;20133;-70
2023/09/14 00:35:20;;;;;;;10.07;3.53;;;10.80;99.90;;;;;;4908921;28;20051;-71
2023/09/14 00:37:48;;;;;;;10.77;3.30;;;10.90;99.90;;;;;;4917412;28;20102;-70
2023/09/14 00:40:15;;;;;;;11.10;3.85;;;10.80;99.90;;;;;;4933977;28;20072;-71
2023/09/14 00:42:44;;;;;;;11.75;3.70;;;10.80;99.90;;;;;;4907324;28;20092;-70
2023/09/14 00:45:14;;;;;;;12.20;3.72;;;10.90;99.90;;;;;;4958155;28;20073;-70
2023/09/14 00:47:44;;;;;;;10.07;3.55;;;10.90;99.90;;;;;;4916705;28;20066;-70
2023/09/14 00:50:10;;;;;;;13.65;3.65;;;10.90;99.90;;;;;;4926130;28;251098;-70
2023/09/14 00:52:38;;;;;;;15.35;4.18;;;10.90;99.90;;;;;;4915275;28;20051;-70
2023/09/14 00:55:06;;;;;;;12.50;4.30;;;10.90;99.90;;;;;;4917188;28;166696;-70
2023/09/14 00:57:34;;;;;;;13.13;4.10;;;10.90;99.90;;;;;;4917472;28;20090;-70
2023/09/14 01:00:00;;;;;;;11.10;3.80;;;10.90;99.90;;;;;;4905623;28;20422;-70
2023/09/14 01:02:26;;;;;;;12.82;3.83;;;10.90;99.90;;;;;;4935662;28;20050;-70
2023/09/14 01:04:53;;;;;;;11.75;3.95;;;11.00;99.90;;;;;;4922207;28;251597;-70
2023/09/14 01:07:19;;;;;;;10.60;3.83;;;11.00;99.90;;;;;;4945760;28;20272;-70
2023/09/14 01:09:46;;;;;;;12.48;4.45;;;11.00;99.90;;;;;;4902514;28;127055;-70
2023/09/14 01:12:14;;;;;;;14.18;4.55;;;11.00;99.90;;;;;;4945006;28;20066;-71
2023/09/14 01:14:51;;;;;;;11.38;3.65;;;11.00;99.90;;;;;;4920613;28;55380;-70
2023/09/14 01:17:31;;;;;;;13.80;4.20;;;11.00;99.90;;;;;;4946826;28;20073;-70
2023/09/14 01:20:07;;;;;;;13.15;4.13;;;11.00;99.90;;;;;;4888202;28;80090;-70
2023/09/14 01:22:51;;;;;;;11.82;3.83;;;11.10;99.90;;;;;;4913926;28;20051;-70
2023/09/14 01:25:23;;;;;;;10.82;3.80;;;11.10;99.90;;;;;;4920569;29;20058;-71
2023/09/14 01:27:49;;;;;;;11.73;4.18;;;11.00;99.90;;;;;;4902349;28;212440;-70
2023/09/14 01:30:15;;;;;;;11.70;4.47;;;11.00;99.90;;;;;;4947135;28;20059;-71
2023/09/14 01:32:41;;;;;;;12.20;4.25;;;11.00;99.90;;;;;;4919960;28;20059;-70
2023/09/14 01:35:08;;;;;;;10.57;3.88;;;11.00;99.90;;;;;;4944082;28;20540;-71
2023/09/14 01:37:34;;;;;;;13.57;4.03;;;11.00;99.90;;;;;;4918601;28;20059;-71
2023/09/14 01:40:04;;;;;;;12.38;4.10;;;11.00;99.90;;;;;;4925758;28;227756;-70
2023/09/14 01:42:30;;;;;;;11.55;3.80;;;11.00;99.90;;;;;;4919592;28;20432;-71
2023/09/14 01:44:57;;;;;;;11.85;3.95;;;11.00;99.90;;;;;;4948830;28;20055;-70
2023/09/14 01:47:23;;;;;;;14.55;4.65;;;11.00;99.90;;;;;;4948364;28;20062;-71
2023/09/14 01:49:49;;;;;;;13.25;4.18;;;11.00;99.90;;;;;;4914024;28;166480;-71
2023/09/14 01:52:15;;;;;;;11.05;4.18;;;11.00;99.90;;;;;;4944572;28;20063;-70
2023/09/14 01:54:41;;;;;;;10.38;4.50;;;10.90;99.90;;;;;;4890187;28;148168;-70
2023/09/14 01:57:07;;;;;;;11.00;3.80;;;10.90;99.90;;;;;;4945570;28;20062;-70
2023/09/14 01:59:33;;;;;;;12.55;4.63;;;10.90;99.90;;;;;;4902197;28;151251;-70
2023/09/14 02:01:59;;;;;;;13.15;4.50;;;10.90;99.90;;;;;;4960229;28;20067;-69
2023/09/14 02:04:25;;;;;;;10.90;4.20;;;10.80;99.90;;;;;;4912820;28;121373;-70
2023/09/14 02:06:51;;;;;;;10.95;4.28;;;10.80;99.90;;;;;;4949260;28;20078;-70
2023/09/14 02:09:17;;;;;;;11.90;4.18;;;10.70;99.90;;;;;;4887711;28;141603;-71
2023/09/14 02:11:43;;;;;;;9.65;3.80;;;10.70;99.90;;;;;;4943282;28;20079;-71
2023/09/14 02:14:09;;;;;;;15.93;4.70;;;10.70;99.90;;;;;;4916245;28;20054;-70
2023/09/14 02:16:36;;;;;;;12.55;4.40;;;10.60;99.90;;;;;;4946034;28;20058;-70
2023/09/14 02:19:02;;;;;;;13.18;4.40;;;10.60;99.90;;;;;;4898793;28;30765;-70
2023/09/14 02:21:28;;;;;;;10.93;3.90;;;10.60;99.90;;;;;;4944232;28;20055;-70
2023/09/14 02:23:54;;;;;;;10.27;4.05;;;10.50;99.90;;;;;;4915211;28;107148;-70
2023/09/14 02:26:20;;;;;;;13.43;3.80;;;10.50;99.90;;;;;;4955511;28;20058;-70
2023/09/14 02:28:46;;;;;;;13.07;4.00;;;10.40;99.90;;;;;;4907551;28;189563;-70
2023/09/14 02:31:12;;;;;;;11.57;4.30;;;10.40;99.90;;;;;;4953984;28;20494;-70
2023/09/14 02:33:39;;;;;;;14.50;4.28;;;10.40;99.90;;;;;;4912645;28;20118;-70
2023/09/14 02:36:06;;;;;;;13.18;4.43;;;10.30;99.90;;;;;;4938141;28;20073;-70
2023/09/14 02:38:32;;;;;;;9.73;3.60;;;10.30;99.90;;;;;;4927544;28;20062;-70
2023/09/14 02:40:58;;;;;;;13.48;4.00;;;10.20;99.90;;;;;;4949317;28;20074;-71
2023/09/14 02:43:24;;;;;;;10.95;4.13;;;10.20;99.90;;;;;;4905686;28;20044;-69
2023/09/14 02:45:50;;;;;;;12.80;4.15;;;10.20;99.90;;;;;;4946739;28;20058;-68
2023/09/14 02:48:16;;;;;;;12.38;3.95;;;10.20;99.90;;;;;;4925587;28;20055;-70
2023/09/14 02:50:43;;;;;;;12.27;4.28;;;10.20;99.90;;;;;;4946848;28;20433;-69
2023/09/14 02:53:09;;;;;;;12.05;3.75;;;10.10;99.90;;;;;;4905467;28;232882;-69
2023/09/14 02:55:35;;;;;;;11.85;4.25;;;10.10;99.90;;;;;;4948998;28;20074;-69
2023/09/14 02:58:06;;;;;;;10.98;3.95;;;10.10;99.90;;;;;;4911314;28;20059;-69
2023/09/14 03:00:32;;;;;;;9.95;3.83;;;10.00;99.90;;;;;;4933506;28;20056;-69
2023/09/14 03:02:58;;;;;;;11.90;3.78;;;10.00;99.90;;;;;;4914497;28;20042;-69
2023/09/14 03:05:24;;;;;;;9.88;3.45;;;10.00;99.90;;;;;;4958989;28;20055;-69
2023/09/14 03:07:50;;;;;;;10.50;3.70;;;9.90;99.90;;;;;;4912622;28;20063;-69
2023/09/14 03:10:16;;;;;;;11.13;3.85;;;9.90;99.90;;;;;;4960520;28;20497;-70
2023/09/14 03:12:42;;;;;;;11.45;3.88;;;9.90;99.90;;;;;;4909540;28;20081;-70
2023/09/14 03:15:09;;;;;;;12.63;4.00;;;9.90;99.90;;;;;;4947779;28;20043;-70
2023/09/14 03:17:35;;;;;;;11.63;3.78;;;9.90;99.90;;;;;;4910878;28;20043;-70
2023/09/14 03:20:01;;;;;;;12.77;4.20;;;9.90;99.90;;;;;;4918847;28;20051;-70
2023/09/14 03:22:27;;;;;;;9.30;3.92;;;9.80;99.90;;;;;;4934866;28;20056;-68
2023/09/14 03:24:53;;;;;;;11.27;4.10;;;9.90;99.90;;;;;;4938865;28;20044;-69
2023/09/14 03:27:19;;;;;;;10.25;3.78;;;9.80;99.90;;;;;;4946929;28;20051;-69
2023/09/14 03:29:45;;;;;;;10.27;3.45;;;9.80;99.90;;;;;;4912505;28;20066;-69
2023/09/14 03:32:11;;;;;;;11.10;3.47;;;9.80;99.90;;;;;;4948886;28;20526;-70
2023/09/14 03:34:37;;;;;;;12.48;4.10;;;9.80;99.90;;;;;;4909965;28;20397;-70
2023/09/14 03:37:03;;;;;;;9.75;4.18;;;9.80;99.90;;;;;;4961852;28;20062;-69
2023/09/14 03:39:29;;;;;;;10.55;3.70;;;9.80;99.90;;;;;;4917697;28;20055;-69
2023/09/14 03:41:56;;;;;;;11.65;3.35;;;9.80;99.90;;;;;;4948487;28;20055;-69
2023/09/14 03:44:22;;;;;;;9.18;3.45;;;9.70;99.90;;;;;;4904719;28;20062;-69
2023/09/14 03:46:48;;;;;;;10.50;3.55;;;9.70;99.90;;;;;;4947491;28;20055;-70
2023/09/14 03:49:14;;;;;;;11.75;3.75;;;9.70;99.90;;;;;;4924669;28;20098;-70
2023/09/14 03:51:40;;;;;;;10.02;3.40;;;9.70;99.90;;;;;;4950144;28;20055;-69
2023/09/14 03:54:06;;;;;;;10.45;3.30;;;9.70;99.90;;;;;;4908702;28;101629;-69
2023/09/14 03:56:32;;;;;;;9.57;3.63;;;9.70;99.90;;;;;;4951428;28;20055;-71
2023/09/14 03:58:58;;;;;;;9.98;2.90;;;9.60;99.90;;;;;;4899050;28;20055;-70
2023/09/14 04:01:25;;;;;;;11.32;3.33;;;9.60;99.90;;;;;;4952177;28;20074;-70
2023/09/14 04:03:51;;;;;;;12.85;3.53;;;9.60;99.90;;;;;;4900849;28;20061;-69
2023/09/14 04:06:17;;;;;;;10.90;3.35;;;9.60;99.90;;;;;;4942247;28;20055;-69
2023/09/14 04:08:43;;;;;;;9.63;3.47;;;9.50;99.90;;;;;;4916236;28;20039;-70
2023/09/14 04:11:09;;;;;;;10.45;3.70;;;9.50;99.90;;;;;;4942592;28;20055;-70
2023/09/14 04:13:36;;;;;;;8.88;3.10;;;9.50;99.90;;;;;;4910287;28;20055;-70
2023/09/14 04:16:03;;;;;;;11.10;3.42;;;9.50;99.90;;;;;;4939035;28;20058;-70
2023/09/14 04:18:35;;;;;;;11.15;3.80;;;9.50;99.90;;;;;;4910884;28;20540;-69
2023/09/14 04:21:02;;;;;;;9.73;3.28;;;9.40;99.90;;;;;;4939021;28;20059;-70
2023/09/14 04:23:29;;;;;;;9.68;3.05;;;9.40;99.90;;;;;;4918109;28;20509;-70
2023/09/14 04:25:55;;;;;;;10.55;3.25;;;9.30;99.90;;;;;;4956243;28;20062;-70
2023/09/14 04:28:21;;;;;;;9.32;3.22;;;9.30;99.90;;;;;;4912613;28;20043;-69
2023/09/14 04:30:51;;;;;;;9.50;3.13;;;9.30;99.90;;;;;;4941908;28;20051;-68
2023/09/14 04:33:18;;;;;;;10.57;3.03;;;9.30;99.90;;;;;;4918137;28;20109;-70
2023/09/14 04:35:44;;;;;;;11.57;3.10;;;9.30;99.90;;;;;;4958711;28;20272;-70
2023/09/14 04:38:11;;;;;;;11.55;3.40;;;9.20;99.90;;;;;;4909189;28;20062;-69
2023/09/14 04:40:39;;;;;;;11.98;3.30;;;9.20;99.90;;;;;;4934947;28;20059;-69
2023/09/14 04:43:05;;;;;;;9.63;3.08;;;9.20;99.90;;;;;;4920859;28;20054;-70
2023/09/14 04:45:32;;;;;;;10.75;3.33;;;9.10;99.90;;;;;;4962385;28;20059;-70
2023/09/14 04:48:02;;;;;;;9.93;3.10;;;9.10;99.90;;;;;;4916037;28;20039;-71
2023/09/14 04:50:28;;;;;;;9.40;3.08;;;9.10;99.90;;;;;;4967753;28;20960;-69
2023/09/14 04:52:55;;;;;;;9.02;2.88;;;9.10;99.90;;;;;;4896870;28;166959;-70
2023/09/14 04:55:21;;;;;;;10.98;2.95;;;9.10;99.90;;;;;;4946448;28;20059;-70
2023/09/14 04:57:48;;;;;;;11.30;3.00;;;9.10;99.90;;;;;;4912141;28;20044;-71
2023/09/14 05:00:14;;;;;;;10.82;3.00;;;9.10;99.90;;;;;;4945505;28;20047;-69
2023/09/14 05:02:43;;;;;;;10.15;2.75;;;9.10;99.90;;;;;;4906931;28;20533;-70
2023/09/14 05:05:09;;;;;;;10.73;2.88;;;9.10;99.90;;;;;;4931536;28;20055;-70
2023/09/14 05:07:36;;;;;;;8.60;3.00;;;9.10;99.90;;;;;;4906705;28;20043;-69
2023/09/14 05:10:02;;;;;;;9.95;3.00;;;9.00;99.90;;;;;;4959743;28;20055;-70
2023/09/14 05:12:29;;;;;;;9.75;2.75;;;9.00;99.90;;;;;;4927934;28;20433;-68
2023/09/14 05:14:55;;;;;;;7.90;2.67;;;9.00;99.90;;;;;;4944967;28;20055;-69
2023/09/14 05:17:21;;;;;;;8.05;2.67;;;9.00;99.90;;;;;;4947358;28;20051;-71
2023/09/14 05:19:47;;;;;;;10.45;3.08;;;9.00;99.90;;;;;;4904205;28;20539;-69
2023/09/14 05:22:13;;;;;;;8.45;2.70;;;9.00;99.90;;;;;;4943727;28;20079;-69
2023/09/14 05:24:40;;;;;;;11.82;2.80;;;9.00;99.90;;;;;;4922484;28;20584;-71
2023/09/14 05:27:06;;;;;;;8.27;2.80;;;9.00;99.90;;;;;;4942784;28;20050;-70
2023/09/14 05:29:32;;;;;;;10.57;2.90;;;9.00;99.90;;;;;;4918168;28;20555;-69
2023/09/14 05:31:59;;;;;;;10.68;3.20;;;9.10;99.90;;;;;;4946299;28;20062;-70
2023/09/14 05:34:25;;;;;;;9.05;2.63;;;9.10;99.90;;;;;;4898928;28;112004;-71
2023/09/14 05:36:52;;;;;;;12.60;2.88;;;9.10;99.90;;;;;;4941811;28;20507;-70
2023/09/14 05:39:18;;;;;;;7.95;2.47;;;9.20;99.90;;;;;;4893028;28;20039;-70
2023/09/14 05:41:45;;;;;;;11.45;2.85;;;9.20;99.90;;;;;;4943686;28;20058;-70
2023/09/14 05:44:11;;;;;;;9.30;2.40;;;9.30;99.90;;;;;;4916604;28;20046;-70
2023/09/14 05:46:38;;;;;;;9.20;2.70;;;9.30;99.90;;;;;;4963415;28;20048;-70
2023/09/14 05:49:05;;;;;;;10.50;2.80;;;9.30;99.90;;;;;;4916864;28;20050;-70
2023/09/14 05:51:31;;;;;;;8.07;2.38;;;9.40;99.90;;;;;;4946638;28;20649;-69
2023/09/14 05:53:57;;;;;;;10.10;2.65;;;9.50;99.90;;;;;;4901569;28;121844;-69
2023/09/14 05:56:23;;;;;;;10.43;2.63;;;9.50;99.90;;;;;;4948156;28;20082;-70
2023/09/14 05:58:50;;;;;;;8.20;2.50;;;9.60;99.90;;;;;;4916454;28;20050;-70
2023/09/14 06:01:16;;;;;;;10.57;2.78;;;9.60;99.90;;;;;;4950462;28;20059;-70
2023/09/14 06:03:42;;;;;;;11.88;2.78;;;9.70;99.90;;;;;;4923706;28;20525;-72
2023/09/14 06:06:08;;;;;;;9.57;2.65;;;9.80;99.90;;;;;;4958330;28;20051;-71
2023/09/14 06:08:35;;;;;;;11.30;2.92;;;9.90;99.90;;;;;;4922485;28;20529;-72
2023/09/14 06:11:01;;;;;;;8.38;2.55;;;9.90;99.90;;;;;;4950476;28;20055;-72
2023/09/14 06:13:28;;;;;;;11.18;3.13;;;10.00;99.90;;;;;;4920850;28;20089;-71
2023/09/14 06:15:54;;;;;;;10.05;2.60;;;10.10;99.90;;;;;;4954337;28;20616;-71
2023/09/14 06:18:21;;;;;;;10.80;2.78;;;10.10;99.90;;;;;;4916692;28;20053;-70
2023/09/14 06:20:47;;;;;;;10.45;2.80;;;10.20;99.90;;;;;;4935536;29;20043;-71
2023/09/14 06:23:13;;;;;;;9.85;2.60;;;10.30;99.90;;;;;;4905079;28;20569;-72
2023/09/14 06:25:39;;;;;;;8.82;2.67;;;10.40;99.90;;;;;;4951423;28;20039;-70
2023/09/14 06:28:05;;;;;;;9.20;2.55;;;10.50;99.90;;;;;;4912666;28;20136;-70
2023/09/14 06:30:32;;;;;;;9.50;2.30;;;10.60;99.90;;;;;;4940900;28;20154;-71
2023/09/14 06:32:58;;;;;;;9.27;2.17;;;10.70;99.90;;;;;;4924340;28;20059;-71
2023/09/14 06:35:24;;;;;;;10.27;2.22;;;10.90;99.90;;;;;;4948688;28;20058;-71
2023/09/14 06:37:51;;;;;;;8.60;2.28;;;11.20;99.90;;;;;;4912484;28;20055;-70
2023/09/14 06:40:17;;;;;;;11.38;2.22;;;11.50;99.90;;;;;;4958026;28;20055;-71
2023/09/14 06:42:43;;;;;;;13.50;2.65;;;12.00;99.90;;;;;;4911916;28;20517;-71
2023/09/14 06:45:10;;;;;;;8.57;2.08;;;12.30;99.90;;;;;;4946045;28;20055;-71
2023/09/14 06:47:36;;;;;;;7.95;1.90;;;12.70;99.90;;;;;;4926966;28;20498;-71
2023/09/14 06:50:04;;;;;;;9.30;2.08;;;13.30;99.90;;;;;;4946291;28;20045;-70
2023/09/14 06:52:32;;;;;;;8.05;1.92;;;13.80;99.90;;;;;;4923711;28;20047;-69
2023/09/14 06:54:58;;;;;;;8.52;2.03;;;14.30;99.90;;;;;;4925590;28;76812;-69
2023/09/14 06:57:24;;;;;;;11.27;2.40;;;14.90;99.90;;;;;;4950843;28;20059;-68
2023/09/14 06:59:50;;;;;;;11.60;2.20;;;15.30;99.90;;;;;;4915399;28;20058;-70
2023/09/14 07:02:16;;;;;;;10.18;2.20;;;15.60;99.90;;;;;;4950101;28;20092;-70
2023/09/14 07:04:42;;;;;;;14.57;2.45;;;16.00;99.90;;;;;;4923691;28;20055;-69
2023/09/14 07:07:08;;;;;;;12.40;2.15;;;16.40;99.90;;;;;;4951804;28;20047;-69
2023/09/14 07:09:35;;;;;;;8.23;1.38;;;16.60;99.90;;;;;;4910923;28;20539;-69
2023/09/14 07:12:02;;;;;;;11.43;2.00;;;16.60;99.90;;;;;;4947248;28;20489;-70
2023/09/14 07:14:29;;;;;;;6.68;1.33;;;16.70;99.90;;;;;;4926031;28;20066;-70
2023/09/14 07:16:55;;;;;;;8.55;1.60;;;16.90;99.90;;;;;;4950680;28;20059;-69
2023/09/14 07:19:26;;;;;;;8.95;1.98;;;17.10;99.90;;;;;;4927163;28;20452;-70
2023/09/14 07:21:54;;;;;;;9.68;1.50;;;17.10;99.90;;;;;;4946386;28;20059;-70
2023/09/14 07:24:21;;;;;;;10.25;1.70;;;17.30;99.90;;;;;;4921147;28;20051;-68
2023/09/14 07:26:47;;;;;;;8.27;1.40;;;17.70;99.90;;;;;;4950405;28;20059;-69
2023/09/14 07:29:14;;;;;;;8.73;1.50;;;18.00;99.90;;;;;;4907571;28;20138;-69
2023/09/14 07:31:40;;;;;;;8.27;1.52;;;18.30;99.90;;;;;;4947620;28;20547;-70
2023/09/14 07:34:06;;;;;;;10.75;1.88;;;18.60;99.90;;;;;;4910666;28;20066;-70
2023/09/14 07:36:33;;;;;;;10.55;1.88;;;18.90;99.90;;;;;;4948918;28;20043;-69
2023/09/14 07:38:59;;;;;;;9.73;2.22;;;18.70;99.90;;;;;;4910711;28;20051;-69
2023/09/14 07:41:26;;;;;;;7.20;1.40;;;19.00;99.90;;;;;;4941189;28;20051;-69
2023/09/14 07:43:52;;;;;;;7.90;1.75;;;19.40;99.90;;;;;;4909569;28;20461;-70
2023/09/14 07:46:18;;;;;;;10.82;1.65;;;19.60;99.90;;;;;;4953889;28;20039;-70
2023/09/14 07:48:44;;;;;;;9.68;1.83;;;19.80;99.90;;;;;;4928422;28;20066;-70
2023/09/14 07:51:10;;;;;;;9.95;1.55;;;20.10;99.90;;;;;;4929741;28;20058;-69
2023/09/14 07:53:36;;;;;;;8.43;1.40;;;20.20;98.20;;;;;;4904064;28;181754;-70
2023/09/14 07:56:03;;;;;;;10.50;1.85;;;19.90;97.00;;;;;;4952643;28;20067;-70
2023/09/14 07:58:29;;;;;;;13.25;1.80;;;20.00;98.10;;;;;;4902379;28;20063;-69
2023/09/14 08:00:55;;;;;;;7.97;1.52;;;19.80;97.40;;;;;;4944962;28;21494;-70
2023/09/14 08:03:21;;;;;;;10.95;1.70;;;20.10;97.20;;;;;;4912196;28;20112;-69
2023/09/14 08:05:47;;;;;;;8.30;1.73;;;20.40;98.00;;;;;;4954966;28;20054;-70
2023/09/14 08:08:13;;;;;;;8.43;1.52;;;20.80;97.70;;;;;;4913146;28;20059;-70
2023/09/14 08:10:39;;;;;;;8.50;1.65;;;21.20;98.00;;;;;;4947590;28;20425;-70
2023/09/14 08:13:05;;;;;;;8.30;1.80;;;21.50;96.20;;;;;;4912783;28;20066;-69
2023/09/14 08:15:31;;;;;;;10.68;1.58;;;21.60;95.20;;;;;;4957446;28;20395;-70
2023/09/14 08:17:57;;;;;;;8.27;1.75;;;21.40;95.50;;;;;;4908720;28;20061;-70
2023/09/14 08:20:23;;;;;;;7.97;1.60;;;21.40;95.50;;;;;;4954224;28;20063;-69
2023/09/14 08:22:49;;;;;;;6.95;1.50;;;21.10;94.00;;;;;;4909642;28;20076;-70
2023/09/14 08:25:16;;;;;;;12.38;1.95;;;21.20;94.10;;;;;;4945219;28;20063;-70
2023/09/14 08:27:43;;;;;;;11.23;1.90;;;21.50;94.60;;;;;;4909945;28;20055;-70
2023/09/14 08:30:10;;;;;;;8.98;1.70;;;21.80;94.90;;;;;;4958818;28;20398;-70
2023/09/14 08:32:37;;;;;;;12.23;2.15;;;22.30;94.30;;;;;;4907962;28;20390;-70
2023/09/14 08:35:23;;;;;;;8.43;1.65;;;22.20;92.50;;;;;;4962578;28;20757;-71
2023/09/14 08:37:54;;;;;;;9.00;1.58;;;22.10;91.00;;;;;;4913002;28;20668;-69
2023/09/14 08:40:21;;;;;;;7.82;1.70;;;21.60;92.60;;;;;;4945930;28;20059;-69
2023/09/14 08:42:50;;;;;;;10.65;1.88;;;21.50;93.40;;;;;;4908402;28;20236;-69
2023/09/14 08:45:30;;;;;;;10.05;1.92;;;22.00;93.60;;;;;;4945776;28;20047;-69
2023/09/14 08:47:58;;;;;;;9.00;1.80;;;22.70;93.10;;;;;;4910764;28;20053;-69
2023/09/14 08:50:26;;;;;;;11.25;2.10;;;23.00;92.60;;;;;;4958657;28;20060;-69
2023/09/14 08:52:53;;;;;;;8.07;1.70;;;23.30;93.10;;;;;;4906517;28;241007;-69
2023/09/14 08:55:21;;;;;;;7.82;1.60;;;23.80;92.60;;;;;;4946001;28;20043;-70
2023/09/14 08:57:48;;;;;;;9.57;1.90;;;23.90;91.20;;;;;;4889056;28;78172;-70
2023/09/14 09:00:15;;;;;;;9.40;1.85;;;23.40;92.00;;;;;;4960221;28;20052;-70
2023/09/14 09:02:45;;;;;;;8.80;1.75;;;23.80;92.00;;;;;;4908813;28;20062;-70
2023/09/14 09:05:14;;;;;;;9.82;2.05;;;23.90;91.60;;;;;;4958605;28;20386;-70
2023/09/14 09:07:42;;;;;;;10.60;2.10;;;24.20;90.80;;;;;;4914592;28;20063;-69
2023/09/14 09:10:24;;;;;;;10.68;1.92;;;24.20;91.00;;;;;;4984072;28;20043;-69
2023/09/14 09:12:53;;;;;;;9.63;2.10;;;24.30;90.00;;;;;;4932251;28;20062;-68
2023/09/14 09:15:22;;;;;;;11.27;1.92;;;23.90;90.10;;;;;;4982961;28;20055;-66
2023/09/14 09:17:53;;;;;;;8.93;1.77;;;24.10;90.50;;;;;;4928116;28;20051;-69
2023/09/14 09:20:22;;;;;;;9.25;2.13;;;24.10;90.10;;;;;;4953016;28;20481;-70
2023/09/14 09:22:50;;;;;;;9.80;1.70;;;24.30;90.00;;;;;;4908809;28;20055;-69
2023/09/14 09:25:21;;;;;;;9.13;1.83;;;24.30;88.80;;;;;;4955456;28;20059;-70
2023/09/14 09:27:48;;;;;;;9.60;2.28;;;24.30;85.00;;;;;;4909361;28;20067;-70
2023/09/14 09:30:15;;;;;;;12.02;2.10;;;24.30;88.50;;;;;;4954619;28;20062;-70
2023/09/14 09:32:42;;;;;;;10.45;1.92;;;24.30;89.00;;;;;;4910631;28;20062;-70
2023/09/14 09:35:22;;;;;;;9.00;1.88;;;25.00;88.60;;;;;;4927662;28;20066;-69
2023/09/14 09:37:49;;;;;;;10.40;1.92;;;25.40;84.60;;;;;;4912389;28;20044;-69
2023/09/14 09:40:24;;;;;;;7.63;1.70;;;25.60;87.50;;;;;;4944563;28;20059;-70
2023/09/14 09:42:52;;;;;;;9.75;1.83;;;26.10;87.30;;;;;;4910457;28;20059;-70
2023/09/14 09:45:25;;;;;;;8.63;1.85;;;26.80;87.10;;;;;;4956800;28;20533;-70
2023/09/14 09:47:53;;;;;;;11.68;2.05;;;27.00;85.70;;;;;;4909117;28;20059;-68
2023/09/14 09:50:21;;;;;;;9.35;1.85;;;27.00;82.70;;;;;;4953167;28;20530;-69
2023/09/14 09:52:48;;;;;;;8.85;1.75;;;26.00;83.40;;;;;;4888018;28;382113;-70
2023/09/14 09:55:27;;;;;;;9.65;1.70;;;26.10;83.00;;;;;;4954886;28;20055;-70
2023/09/14 09:57:58;;;;;;;8.18;1.80;;;26.30;82.30;;;;;;4882211;29;20055;-70
2023/09/14 10:00:29;;;;;;;8.13;1.85;;;26.50;82.20;;;;;;4920099;28;20051;-70
2023/09/14 10:02:55;;;;;;;9.63;2.00;;;26.80;79.30;;;;;;4906949;28;20054;-70
2023/09/14 10:05:32;;;;;;;8.85;1.88;;;25.60;83.00;;;;;;4944746;28;20051;-70
2023/09/14 10:08:00;;;;;;;8.40;1.80;;;26.20;83.30;;;;;;4904682;28;20260;-71
2023/09/14 10:10:27;;;;;;;7.03;1.70;;;26.70;82.50;;;;;;4959890;28;20066;-70
2023/09/14 10:12:55;;;;;;;11.60;2.30;;;26.00;81.90;;;;;;4909239;28;20043;-70
2023/09/14 10:15:24;;;;;;;10.15;2.15;;;24.70;82.60;;;;;;4956115;28;20419;-70
2023/09/14 10:17:53;;;;;;;9.65;2.08;;;23.80;83.60;;;;;;4905730;28;20049;-70
2023/09/14 10:20:20;;;;;;;9.95;2.10;;;24.60;83.20;;;;;;4942521;28;20509;-70
2023/09/14 10:22:48;;;;;;;14.10;2.42;;;25.50;82.80;;;;;;4908559;28;20079;-70
2023/09/14 10:25:16;;;;;;;10.13;2.30;;;25.80;82.70;;;;;;4944807;28;20054;-70
2023/09/14 10:27:42;;;;;;;12.43;2.03;;;25.60;83.90;;;;;;4908758;28;20059;-70
2023/09/14 10:30:17;;;;;;;12.80;2.20;;;25.50;82.40;;;;;;4927876;28;20525;-70
2023/09/14 10:32:46;;;;;;;10.38;2.30;;;25.40;82.10;;;;;;4902075;28;55133;-70
2023/09/14 10:35:13;;;;;;;10.02;2.20;;;25.00;82.40;;;;;;4957238;28;20070;-70
2023/09/14 10:37:43;;;;;;;10.13;2.17;;;24.10;82.60;;;;;;4909875;28;20629;-70
2023/09/14 10:40:11;;;;;;;11.18;2.10;;;23.60;83.20;;;;;;4941500;28;20051;-70
2023/09/14 10:42:39;;;;;;;10.85;2.20;;;23.20;83.90;;;;;;4908861;28;20049;-70
2023/09/14 10:45:06;;;;;;;11.23;2.15;;;23.10;84.30;;;;;;4941088;28;20059;-70
2023/09/14 10:47:37;;;;;;;10.02;2.30;;;23.70;83.80;;;;;;4928442;28;20047;-69
2023/09/14 10:50:05;;;;;;;11.18;2.30;;;23.10;83.60;;;;;;4932802;28;20043;-70
2023/09/14 10:52:32;;;;;;;9.23;2.13;;;22.60;84.50;;;;;;4922678;28;20059;-71
2023/09/14 10:54:59;;;;;;;10.75;2.30;;;22.30;85.00;;;;;;4933447;28;83381;-70
2023/09/14 10:57:29;;;;;;;12.57;2.38;;;22.70;85.00;;;;;;4944819;28;20047;-70
2023/09/14 11:00:00;;;;;;;11.15;2.20;;;23.00;85.00;;;;;;4911805;28;258956;-70
2023/09/14 11:02:39;;;;;;;9.50;2.05;;;23.00;84.20;;;;;;4939085;28;20075;-69
2023/09/14 11:05:25;;;;;;;10.00;2.03;;;23.50;84.40;;;;;;4927425;28;20051;-71
2023/09/14 11:08:04;;;;;;;11.10;2.58;;;23.40;84.50;;;;;;4915460;28;20060;-71
2023/09/14 11:10:34;;;;;;;14.43;2.20;;;23.70;84.50;;;;;;4960206;28;20059;-70
2023/09/14 11:13:18;;;;;;;9.73;2.08;;;24.50;84.70;;;;;;4915345;28;20051;-71
2023/09/14 11:15:46;;;;;;;11.05;2.00;;;25.10;82.10;;;;;;4949038;28;20066;-70
2023/09/14 11:18:19;;;;;;;7.97;2.15;;;25.40;82.10;;;;;;4923949;28;20105;-70
2023/09/14 11:20:46;;;;;;;9.85;2.13;;;24.90;83.30;;;;;;4951912;28;20047;-71
2023/09/14 11:23:13;;;;;;;9.10;2.38;;;25.20;84.00;;;;;;4908592;28;20426;-72
2023/09/14 11:25:43;;;;;;;8.82;2.30;;;26.00;85.40;;;;;;4947644;28;20055;-72
2023/09/14 11:28:20;;;;;;;10.93;2.55;;;26.90;84.80;;;;;;4913954;28;20066;-71
2023/09/14 11:30:50;;;;;;;11.57;2.55;;;27.50;79.90;;;;;;4956456;28;20070;-72
2023/09/14 11:33:16;;;;;;;9.80;2.13;;;27.60;80.50;;;;;;4914245;28;20250;-72
2023/09/14 11:35:48;;;;;;;9.15;2.22;;;27.50;78.80;;;;;;4952512;28;20074;-73
2023/09/14 11:38:19;;;;;;;11.15;2.22;;;26.90;78.80;;;;;;4910836;28;20066;-72
2023/09/14 11:40:46;;;;;;;9.38;2.10;;;27.20;80.20;;;;;;4954105;28;20046;-73
2023/09/14 11:43:20;;;;;;;10.00;2.28;;;27.50;78.40;;;;;;4899820;28;20047;-73
2023/09/14 11:46:00;;;;;;;8.55;2.30;;;26.90;80.00;;;;;;4940706;28;20059;-73
2023/09/14 11:48:33;;;;;;;10.45;2.20;;;26.90;79.60;;;;;;4912750;28;20556;-73
2023/09/14 11:51:02;;;;;;;10.60;2.67;;;27.10;78.40;;;;;;4953998;28;20129;-73
2023/09/14 11:53:32;;;;;;;8.35;2.10;;;27.20;79.60;;;;;;4881856;28;32543;-72
2023/09/14 11:55:58;;;;;;;10.27;2.35;;;27.40;78.80;;;;;;4941169;28;20035;-71
2023/09/14 11:58:24;;;;;;;9.40;2.20;;;27.50;80.10;;;;;;4925670;28;20061;-73
2023/09/14 12:00:54;;;;;;;9.60;2.17;;;27.30;78.60;;;;;;4951057;28;20098;-72
2023/09/14 12:03:20;;;;;;;9.55;2.35;;;26.50;78.00;;;;;;4913217;28;20050;-73
2023/09/14 12:05:47;;;;;;;13.30;2.78;;;25.50;78.00;;;;;;4947661;28;20063;-73
2023/09/14 12:08:18;;;;;;;10.27;2.33;;;24.70;77.90;;;;;;4895142;28;20043;-73
2023/09/14 12:10:50;;;;;;;8.85;2.30;;;24.30;79.20;;;;;;4948013;28;20062;-73
2023/09/14 12:13:18;;;;;;;11.32;2.17;;;24.70;80.60;;;;;;4914360;28;20752;-72
2023/09/14 12:15:46;;;;;;;9.68;2.55;;;25.30;80.30;;;;;;4955266;28;20055;-72
2023/09/14 12:18:16;;;;;;;10.63;2.55;;;25.60;81.80;;;;;;4913626;28;20374;-72
2023/09/14 12:20:45;;;;;;;9.50;2.25;;;26.10;79.30;;;;;;4953682;28;20062;-72
2023/09/14 12:23:13;;;;;;;10.57;2.53;;;25.90;76.80;;;;;;4905171;28;20223;-72
2023/09/14 12:25:40;;;;;;;9.07;2.30;;;25.90;78.00;;;;;;4954593;28;20074;-72
2023/09/14 12:28:11;;;;;;;9.45;2.42;;;25.80;77.60;;;;;;4923988;28;20067;-70
2023/09/14 12:30:38;;;;;;;9.10;2.45;;;26.10;79.00;;;;;;4936560;28;20059;-72
2023/09/14 12:33:05;;;;;;;8.43;2.22;;;26.80;78.50;;;;;;4918858;28;20043;-71
2023/09/14 12:35:32;;;;;;;8.55;2.20;;;26.60;77.10;;;;;;4949271;28;20074;-72
2023/09/14 12:38:03;;;;;;;9.75;2.17;;;26.30;77.40;;;;;;4912341;28;20560;-71
2023/09/14 12:40:38;;;;;;;9.40;2.35;;;26.80;79.70;;;;;;4955251;28;20055;-71
2023/09/14 12:43:05;;;;;;;9.65;2.40;;;27.70;77.70;;;;;;4913837;28;20050;-71
2023/09/14 12:45:35;;;;;;;9.02;2.67;;;28.10;77.30;;;;;;4958434;28;21024;-72